^^
Your Local Weather - Clay, NY Station Historical Data
Daily Summary for November 17, 2017 Units:  English    Metric   Both
« Previous Day
Next Day »
Daily Weekly Monthly Yearly Custom
  High: Low: Average:
Temperature: 37.2 °F 24.8 °F 31.6 °F
Dew Point: 29.7 °F 20.4 °F 23.8 °F
Humidity: 88% 55% 73%
Wind Speed: 7.0mph 0.0mph 2.7mph
Wind Gust: 13.0mph - -
Wind- - WNW
Pressure: 30.19 in 29.97 in -
Precipitation: 0.00 in    
Historical Graphs
 
 
Tabular Data for November 17, 2017
Time Temperature Dew Point Pressure Wind Wind Speed Wind Gust Humidity Rainfall Rate (Hourly) solar
00:04 35.9 °F 29.7 °F 29.97 in NW 5.0 mph 7.0 mph 78% 0.00 in 0 W/m2
00:10 35.9 °F 29.7 °F 29.97 in SW 6.0 mph 6.0 mph 78% 0.00 in 0 W/m2
00:16 35.8 °F 29.6 °F 29.98 in NW 6.0 mph 8.0 mph 78% 0.00 in 0 W/m2
00:22 35.7 °F 29.5 °F 29.98 in NW 6.0 mph 11.0 mph 78% 0.00 in 0 W/m2
00:28 35.6 °F 29.4 °F 29.98 in WNW 7.0 mph 11.0 mph 78% 0.00 in 0 W/m2
00:34 35.5 °F 29.3 °F 29.98 in NNW 6.0 mph 10.0 mph 78% 0.00 in 0 W/m2
00:40 35.4 °F 29.2 °F 29.98 in North 4.0 mph 5.0 mph 78% 0.00 in 0 W/m2
00:46 35.3 °F 28.8 °F 29.98 in NW 5.0 mph 6.0 mph 77% 0.00 in 0 W/m2
00:52 35.2 °F 29.0 °F 29.98 in NNW 5.0 mph 8.0 mph 78% 0.00 in 0 W/m2
00:58 35.0 °F 28.5 °F 29.98 in NW 5.0 mph 10.0 mph 77% 0.00 in 0 W/m2
01:04 35.0 °F 28.5 °F 29.99 in WNW 6.0 mph 6.0 mph 77% 0.00 in 0 W/m2
01:10 34.9 °F 28.7 °F 29.99 in West 4.0 mph 5.0 mph 78% 0.00 in 0 W/m2
01:16 34.8 °F 28.3 °F 29.99 in West 5.0 mph 6.0 mph 77% 0.00 in 0 W/m2
01:22 34.8 °F 28.3 °F 30.00 in WNW 6.0 mph 9.0 mph 77% 0.00 in 0 W/m2
01:28 34.6 °F 28.1 °F 30.00 in NW 5.0 mph 9.0 mph 77% 0.00 in 0 W/m2
01:34 34.6 °F 28.1 °F 30.00 in WNW 5.0 mph 5.0 mph 77% 0.00 in 0 W/m2
01:40 34.6 °F 28.1 °F 30.00 in WNW 5.0 mph 5.0 mph 77% 0.00 in 0 W/m2
01:46 34.5 °F 28.0 °F 30.01 in WNW 4.0 mph 7.0 mph 77% 0.00 in 0 W/m2
01:52 34.5 °F 28.0 °F 30.01 in WNW 4.0 mph 6.0 mph 77% 0.00 in 0 W/m2
01:58 34.4 °F 27.9 °F 30.01 in WNW 3.0 mph 6.0 mph 77% 0.00 in 0 W/m2
02:04 34.4 °F 27.9 °F 30.02 in WNW 4.0 mph 4.0 mph 77% 0.00 in 0 W/m2
02:10 34.4 °F 27.9 °F 30.02 in WNW 3.0 mph 6.0 mph 77% 0.00 in 0 W/m2
02:16 34.3 °F 27.8 °F 30.03 in WNW 4.0 mph 6.0 mph 77% 0.00 in 0 W/m2
02:22 34.1 °F 27.6 °F 30.03 in WNW 4.0 mph 4.0 mph 77% 0.00 in 0 W/m2
02:28 34.1 °F 27.6 °F 30.04 in NW 4.0 mph 8.0 mph 77% 0.00 in 0 W/m2
02:34 34.0 °F 27.5 °F 30.04 in NNW 4.0 mph 7.0 mph 77% 0.00 in 0 W/m2
02:40 34.0 °F 27.5 °F 30.05 in WNW 4.0 mph 5.0 mph 77% 0.00 in 0 W/m2
02:46 33.9 °F 27.1 °F 30.05 in WNW 4.0 mph 8.0 mph 76% 0.00 in 0 W/m2
02:52 33.8 °F 26.7 °F 30.04 in WNW 4.0 mph 9.0 mph 75% 0.00 in 0 W/m2
02:58 33.7 °F 26.6 °F 30.05 in NW 5.0 mph 9.0 mph 75% 0.00 in 0 W/m2
03:10 33.6 °F 26.5 °F 30.05 in NNW 4.0 mph 4.0 mph 75% 0.00 in 0 W/m2
03:16 33.5 °F 26.4 °F 30.06 in NNW 4.0 mph 6.0 mph 75% 0.00 in 0 W/m2
03:22 33.5 °F 26.1 °F 30.06 in WNW 4.0 mph 4.0 mph 74% 0.00 in 0 W/m2
03:28 33.5 °F 26.1 °F 30.06 in WNW 4.0 mph 6.0 mph 74% 0.00 in 0 W/m2
03:34 33.6 °F 26.2 °F 30.06 in WNW 4.0 mph 4.0 mph 74% 0.00 in 0 W/m2
03:40 33.5 °F 26.1 °F 30.06 in WNW 3.0 mph 3.0 mph 74% 0.00 in 0 W/m2
03:46 33.5 °F 26.4 °F 30.06 in WNW 2.0 mph 3.0 mph 75% 0.00 in 0 W/m2
03:52 33.5 °F 26.4 °F 30.06 in NW 2.0 mph 2.0 mph 75% 0.00 in 0 W/m2
03:58 33.5 °F 26.4 °F 30.06 in NNW 2.0 mph 3.0 mph 75% 0.00 in 0 W/m2
04:04 33.6 °F 26.8 °F 30.06 in WNW 3.0 mph 7.0 mph 76% 0.00 in 0 W/m2
04:16 33.7 °F 26.9 °F 30.07 in NW 3.0 mph 5.0 mph 76% 0.00 in 0 W/m2
04:28 33.9 °F 27.1 °F 30.07 in WNW 3.0 mph 6.0 mph 76% 0.00 in 0 W/m2
04:34 33.9 °F 27.1 °F 30.08 in WNW 3.0 mph 3.0 mph 76% 0.00 in 0 W/m2
04:40 33.9 °F 26.8 °F 30.08 in WNW 3.0 mph 3.0 mph 75% 0.00 in 0 W/m2
04:46 33.9 °F 26.8 °F 30.08 in NW 4.0 mph 6.0 mph 75% 0.00 in 0 W/m2
04:52 33.8 °F 27.0 °F 30.08 in WNW 4.0 mph 5.0 mph 76% 0.00 in 0 W/m2
04:58 33.7 °F 26.6 °F 30.08 in NW 4.0 mph 5.0 mph 75% 0.00 in 0 W/m2
05:04 33.7 °F 26.6 °F 30.09 in NW 4.0 mph 7.0 mph 75% 0.00 in 0 W/m2
05:10 33.6 °F 26.8 °F 30.09 in NW 4.0 mph 4.0 mph 76% 0.00 in 0 W/m2
05:16 33.5 °F 26.7 °F 30.09 in NNW 2.0 mph 5.0 mph 76% 0.00 in 0 W/m2
05:22 33.5 °F 26.7 °F 30.09 in NW 3.0 mph 3.0 mph 76% 0.00 in 0 W/m2
05:28 33.5 °F 27.1 °F 30.09 in NNW 2.0 mph 6.0 mph 77% 0.00 in 0 W/m2
05:34 33.5 °F 27.1 °F 30.10 in NW 3.0 mph 3.0 mph 77% 0.00 in 0 W/m2
05:40 33.5 °F 27.1 °F 30.11 in NW 3.0 mph 4.0 mph 77% 0.00 in 0 W/m2
05:46 33.6 °F 27.5 °F 30.11 in NW 4.0 mph 7.0 mph 78% 0.00 in 0 W/m2
05:52 33.3 °F 26.9 °F 30.11 in NW 4.0 mph 8.0 mph 77% 0.00 in 0 W/m2
05:58 32.9 °F 26.2 °F 30.11 in NW 5.0 mph 8.0 mph 76% 0.00 in 0 W/m2
06:04 32.6 °F 25.9 °F 30.12 in NW 5.0 mph 5.0 mph 76% 0.00 in 0 W/m2
06:10 32.3 °F 25.6 °F 30.12 in NNW 4.0 mph 4.0 mph 76% 0.00 in 0 W/m2
06:16 32.2 °F 25.5 °F 30.13 in NNW 3.0 mph 5.0 mph 76% 0.00 in 0 W/m2
06:22 32.0 °F 25.0 °F 30.13 in NW 3.0 mph 4.0 mph 75% 0.00 in 0 W/m2
06:28 31.8 °F 24.8 °F 30.14 in NW 5.0 mph 6.0 mph 75% 0.00 in 0 W/m2
06:34 31.7 °F 24.7 °F 30.14 in WNW 5.0 mph 7.0 mph 75% 0.00 in 0 W/m2
06:40 31.6 °F 24.6 °F 30.14 in NW 4.0 mph 5.0 mph 75% 0.00 in 0 W/m2
06:46 31.6 °F 24.9 °F 30.14 in NW 4.0 mph 5.0 mph 76% 0.00 in 0 W/m2
06:52 31.5 °F 24.8 °F 30.14 in NNW 4.0 mph 4.0 mph 76% 0.00 in 0 W/m2
06:58 31.4 °F 24.7 °F 30.14 in NW 4.0 mph 8.0 mph 76% 0.00 in 0 W/m2
07:04 31.3 °F 24.6 °F 30.14 in NNW 4.0 mph 8.0 mph 76% 0.00 in 0 W/m2
07:10 31.2 °F 24.5 °F 30.15 in NW 4.0 mph 4.0 mph 76% 0.00 in 0 W/m2
07:16 31.0 °F 24.3 °F 30.15 in NNW 4.0 mph 4.0 mph 76% 0.00 in 0 W/m2
07:22 30.9 °F 24.2 °F 30.16 in NW 4.0 mph 4.0 mph 76% 0.00 in 5 W/m2
07:28 30.8 °F 24.1 °F 30.16 in WNW 4.0 mph 6.0 mph 76% 0.00 in 7 W/m2
07:34 30.8 °F 24.4 °F 30.16 in NNW 4.0 mph 4.0 mph 77% 0.00 in 11 W/m2
07:40 30.7 °F 24.3 °F 30.16 in NW 2.0 mph 2.0 mph 77% 0.00 in 14 W/m2
07:46 30.6 °F 23.9 °F 30.16 in NW 3.0 mph 3.0 mph 76% 0.00 in 19 W/m2
07:52 30.3 °F 23.3 °F 30.16 in WNW 4.0 mph 5.0 mph 75% 0.00 in 26 W/m2
07:58 30.1 °F 23.1 °F 30.17 in NW 5.0 mph 6.0 mph 75% 0.00 in 26 W/m2
08:04 30.0 °F 23.4 °F 30.17 in NNW 5.0 mph 5.0 mph 76% 0.00 in 33 W/m2
08:10 30.0 °F 23.4 °F 30.17 in NW 4.0 mph 4.0 mph 76% 0.00 in 39 W/m2
08:16 29.9 °F 22.9 °F 30.17 in WNW 4.0 mph 4.0 mph 75% 0.00 in 42 W/m2
08:22 29.9 °F 22.9 °F 30.17 in NW 3.0 mph 4.0 mph 75% 0.00 in 46 W/m2
08:30 29.8 °F 22.8 °F 30.18 in WNW 3.0 mph 3.0 mph 75% 0.00 in 51 W/m2
08:36 29.7 °F 22.7 °F 30.18 in NW 4.0 mph 5.0 mph 75% 0.00 in 58 W/m2
08:42 29.8 °F 22.8 °F 30.18 in WNW 3.0 mph 5.0 mph 75% 0.00 in 70 W/m2
08:48 29.7 °F 22.7 °F 30.18 in NW 4.0 mph 5.0 mph 75% 0.00 in 76 W/m2
08:54 29.7 °F 22.4 °F 30.18 in West 5.0 mph 6.0 mph 74% 0.00 in 83 W/m2
09:00 29.8 °F 22.5 °F 30.18 in WNW 4.0 mph 4.0 mph 74% 0.00 in 76 W/m2
09:06 29.8 °F 22.5 °F 30.19 in NW 4.0 mph 8.0 mph 74% 0.00 in 81 W/m2
09:12 29.8 °F 22.2 °F 30.19 in WNW 5.0 mph 6.0 mph 73% 0.00 in 98 W/m2
09:18 29.9 °F 22.6 °F 30.19 in WNW 5.0 mph 6.0 mph 74% 0.00 in 118 W/m2
09:24 30.1 °F 22.2 °F 30.19 in NW 4.0 mph 6.0 mph 72% 0.00 in 137 W/m2
09:30 30.3 °F 22.4 °F 30.19 in WNW 4.0 mph 6.0 mph 72% 0.00 in 141 W/m2
09:36 30.3 °F 22.0 °F 30.19 in WNW 4.0 mph 6.0 mph 71% 0.00 in 132 W/m2
09:42 30.1 °F 22.2 °F 30.19 in WNW 4.0 mph 4.0 mph 72% 0.00 in 120 W/m2
09:48 30.5 °F 22.5 °F 30.19 in NNW 3.0 mph 4.0 mph 72% 0.00 in 141 W/m2
09:54 30.5 °F 22.5 °F 30.19 in WNW 4.0 mph 6.0 mph 72% 0.00 in 230 W/m2
10:00 30.7 °F 22.7 °F 30.19 in WNW 4.0 mph 4.0 mph 72% 0.00 in 193 W/m2
10:06 30.7 °F 22.1 °F 30.19 in WNW 4.0 mph 8.0 mph 70% 0.00 in 204 W/m2
10:12 30.3 °F 21.3 °F 30.19 in WNW 5.0 mph 7.0 mph 69% 0.00 in 162 W/m2
10:18 31.5 °F 22.5 °F 30.19 in WNW 4.0 mph 7.0 mph 69% 0.00 in 598 W/m2
10:24 32.7 °F 24.3 °F 30.19 in WNW 4.0 mph 9.0 mph 71% 0.00 in 564 W/m2
10:30 32.5 °F 22.0 °F 30.19 in WSW 5.0 mph 7.0 mph 65% 0.00 in 545 W/m2
10:36 33.4 °F 24.3 °F 30.18 in West 4.0 mph 7.0 mph 69% 0.00 in 517 W/m2
10:42 33.7 °F 22.8 °F 30.18 in NNW 3.0 mph 6.0 mph 64% 0.00 in 629 W/m2
10:48 32.8 °F 23.0 °F 30.18 in NNW 5.0 mph 6.0 mph 67% 0.00 in 543 W/m2
10:54 33.4 °F 23.3 °F 30.18 in WNW 4.0 mph 7.0 mph 66% 0.00 in 490 W/m2
11:00 33.1 °F 22.2 °F 30.18 in NW 5.0 mph 6.0 mph 64% 0.00 in 517 W/m2
11:06 33.4 °F 21.8 °F 30.19 in NW 5.0 mph 6.0 mph 62% 0.00 in 515 W/m2
11:12 33.5 °F 21.9 °F 30.18 in WNW 4.0 mph 5.0 mph 62% 0.00 in 490 W/m2
11:18 34.3 °F 23.7 °F 30.18 in WNW 3.0 mph 5.0 mph 65% 0.00 in 512 W/m2
11:24 34.8 °F 23.5 °F 30.18 in WNW 4.0 mph 7.0 mph 63% 0.00 in 529 W/m2
11:30 34.6 °F 22.5 °F 30.17 in NW 4.0 mph 5.0 mph 61% 0.00 in 499 W/m2
11:36 33.8 °F 21.8 °F 30.17 in NNW 5.0 mph 6.0 mph 61% 0.00 in 499 W/m2
11:42 34.4 °F 23.1 °F 30.17 in WNW 5.0 mph 5.0 mph 63% 0.00 in 485 W/m2
11:48 34.2 °F 22.5 °F 30.17 in NNW 5.0 mph 7.0 mph 62% 0.00 in 496 W/m2
11:54 34.2 °F 21.7 °F 30.17 in WNW 5.0 mph 6.0 mph 60% 0.00 in 504 W/m2
12:00 34.0 °F 21.6 °F 30.17 in WNW 5.0 mph 5.0 mph 60% 0.00 in 469 W/m2
12:06 34.2 °F 21.7 °F 30.16 in WNW 5.0 mph 6.0 mph 60% 0.00 in 497 W/m2
12:12 34.9 °F 22.8 °F 30.16 in WNW 4.0 mph 13.0 mph 61% 0.00 in 485 W/m2
12:18 34.4 °F 21.1 °F 30.16 in NNW 5.0 mph 13.0 mph 58% 0.00 in 497 W/m2
12:24 35.0 °F 23.3 °F 30.16 in WNW 5.0 mph 5.0 mph 62% 0.00 in 497 W/m2
12:30 35.6 °F 23.9 °F 30.16 in WNW 3.0 mph 3.0 mph 62% 0.00 in 494 W/m2
12:36 35.6 °F 22.7 °F 30.16 in West 3.0 mph 4.0 mph 59% 0.00 in 499 W/m2
12:42 35.3 °F 22.8 °F 30.16 in NNW 4.0 mph 5.0 mph 60% 0.00 in 490 W/m2
12:48 35.3 °F 22.4 °F 30.15 in North 4.0 mph 5.0 mph 59% 0.00 in 483 W/m2
12:54 35.4 °F 22.5 °F 30.15 in WNW 5.0 mph 7.0 mph 59% 0.00 in 476 W/m2
13:00 35.2 °F 21.9 °F 30.15 in West 5.0 mph 5.0 mph 58% 0.00 in 475 W/m2
13:02 35.0 °F 22.1 °F 30.15 in NNW 5.0 mph 5.0 mph 59% 0.00 in 469 W/m2
13:08 35.2 °F 21.5 °F 30.15 in WNW 5.0 mph 5.0 mph 57% 0.00 in 459 W/m2
13:14 35.9 °F 23.0 °F 30.15 in WNW 4.0 mph 5.0 mph 59% 0.00 in 450 W/m2
13:20 35.9 °F 22.5 °F 30.15 in NW 3.0 mph 4.0 mph 58% 0.00 in 441 W/m2
13:26 36.5 °F 23.5 °F 30.15 in WNW 4.0 mph 7.0 mph 59% 0.00 in 434 W/m2
13:32 36.2 °F 22.8 °F 30.15 in NW 4.0 mph 5.0 mph 58% 0.00 in 425 W/m2
13:38 36.3 °F 22.5 °F 30.15 in NNW 4.0 mph 6.0 mph 57% 0.00 in 417 W/m2
13:44 36.6 °F 23.2 °F 30.14 in WNW 4.0 mph 6.0 mph 58% 0.00 in 406 W/m2
13:50 36.6 °F 24.0 °F 30.15 in WNW 4.0 mph 4.0 mph 60% 0.00 in 397 W/m2
13:56 37.0 °F 22.7 °F 30.15 in WNW 3.0 mph 4.0 mph 56% 0.00 in 388 W/m2
14:02 36.9 °F 23.1 °F 30.15 in WNW 3.0 mph 3.0 mph 57% 0.00 in 376 W/m2
14:08 36.7 °F 23.3 °F 30.15 in WNW 4.0 mph 8.0 mph 58% 0.00 in 366 W/m2
14:14 37.2 °F 23.8 °F 30.14 in NW 3.0 mph 4.0 mph 58% 0.00 in 355 W/m2
14:20 36.8 °F 22.6 °F 30.14 in NW 3.0 mph 3.0 mph 56% 0.00 in 343 W/m2
14:32 36.2 °F 22.4 °F 30.14 in NW 4.0 mph 5.0 mph 57% 0.00 in 316 W/m2
14:38 36.4 °F 22.2 °F 30.15 in WNW 4.0 mph 5.0 mph 56% 0.00 in 306 W/m2
14:44 36.3 °F 21.7 °F 30.15 in NNW 4.0 mph 5.0 mph 55% 0.00 in 294 W/m2
14:50 36.3 °F 21.7 °F 30.15 in WNW 4.0 mph 4.0 mph 55% 0.00 in 279 W/m2
14:56 36.2 °F 22.0 °F 30.15 in WNW 3.0 mph 6.0 mph 56% 0.00 in 265 W/m2
15:08 35.5 °F 22.2 °F 30.15 in NNW 3.0 mph 5.0 mph 58% 0.00 in 237 W/m2
15:16 35.5 °F 22.2 °F 30.14 in NW 3.0 mph 4.0 mph 58% 0.00 in 216 W/m2
15:22 35.5 °F 21.3 °F 30.14 in WSW 3.0 mph 3.0 mph 56% 0.00 in 202 W/m2
15:28 35.0 °F 20.4 °F 30.14 in WNW 3.0 mph 5.0 mph 55% 0.00 in 188 W/m2
15:34 35.0 °F 21.3 °F 30.14 in WNW 3.0 mph 3.0 mph 57% 0.00 in 171 W/m2
15:40 34.8 °F 21.5 °F 30.14 in WNW 2.0 mph 3.0 mph 58% 0.00 in 155 W/m2
15:46 34.4 °F 21.1 °F 30.15 in WNW 3.0 mph 4.0 mph 58% 0.00 in 54 W/m2
15:52 34.0 °F 21.2 °F 30.15 in NW 3.0 mph 4.0 mph 59% 0.00 in 21 W/m2
15:58 33.7 °F 21.3 °F 30.15 in WNW 3.0 mph 4.0 mph 60% 0.00 in 19 W/m2
16:04 33.6 °F 21.6 °F 30.15 in WNW 2.0 mph 3.0 mph 61% 0.00 in 18 W/m2
16:10 33.3 °F 21.7 °F 30.14 in WNW 1.0 mph 1.0 mph 62% 0.00 in 16 W/m2
16:16 33.1 °F 21.9 °F 30.14 in WNW 1.0 mph 2.0 mph 63% 0.00 in 14 W/m2
16:22 32.9 °F 21.7 °F 30.13 in WNW 1.0 mph 1.0 mph 63% 0.00 in 12 W/m2
16:28 32.7 °F 21.5 °F 30.13 in WNW 1.0 mph 4.0 mph 63% 0.00 in 9 W/m2
16:34 32.6 °F 21.8 °F 30.13 in WNW 2.0 mph 2.0 mph 64% 0.00 in 7 W/m2
16:40 32.3 °F 21.8 °F 30.13 in WNW 1.0 mph 1.0 mph 65% 0.00 in 0 W/m2
16:46 31.8 °F 21.7 °F 30.14 in Calm   1.0 mph 66% 0.00 in 0 W/m2
16:52 31.5 °F 21.4 °F 30.13 in Calm     66% 0.00 in 0 W/m2
16:58 31.1 °F 21.4 °F 30.13 in Calm     67% 0.00 in 0 W/m2
17:04 30.8 °F 21.5 °F 30.13 in Calm     68% 0.00 in 0 W/m2
17:10 30.5 °F 21.5 °F 30.13 in Calm     69% 0.00 in 0 W/m2
17:16 30.2 °F 21.2 °F 30.13 in Calm     69% 0.00 in 0 W/m2
17:22 29.8 °F 21.2 °F 30.13 in Calm     70% 0.00 in 0 W/m2
17:28 29.3 °F 21.1 °F 30.13 in Calm     71% 0.00 in 0 W/m2
17:34 29.1 °F 21.2 °F 30.14 in Calm     72% 0.00 in 0 W/m2
17:40 28.9 °F 21.7 °F 30.12 in Calm     74% 0.00 in 0 W/m2
17:46 28.7 °F 21.8 °F 30.12 in Calm     75% 0.00 in 0 W/m2
17:52 28.7 °F 22.1 °F 30.13 in Calm     76% 0.00 in 0 W/m2
17:58 28.7 °F 22.1 °F 30.13 in Calm     76% 0.00 in 0 W/m2
18:04 28.7 °F 22.4 °F 30.13 in Calm     77% 0.00 in 0 W/m2
18:10 29.0 °F 22.7 °F 30.13 in Calm     77% 0.00 in 0 W/m2
18:16 29.2 °F 23.2 °F 30.13 in Calm     78% 0.00 in 0 W/m2
18:22 29.6 °F 23.9 °F 30.12 in Calm     79% 0.00 in 0 W/m2
18:28 29.7 °F 24.0 °F 30.11 in Calm     79% 0.00 in 0 W/m2
18:34 29.7 °F 24.0 °F 30.10 in Calm     79% 0.00 in 0 W/m2
18:40 29.8 °F 23.8 °F 30.11 in Calm     78% 0.00 in 0 W/m2
18:46 29.8 °F 23.8 °F 30.10 in Calm     78% 0.00 in 0 W/m2
18:52 30.0 °F 24.0 °F 30.10 in Calm   1.0 mph 78% 0.00 in 0 W/m2
18:58 30.0 °F 24.0 °F 30.09 in Calm   1.0 mph 78% 0.00 in 0 W/m2
19:04 29.9 °F 23.9 °F 30.09 in Calm     78% 0.00 in 0 W/m2
19:10 29.7 °F 23.7 °F 30.08 in Calm     78% 0.00 in 0 W/m2
19:16 29.4 °F 23.4 °F 30.08 in Calm   1.0 mph 78% 0.00 in 0 W/m2
19:22 29.3 °F 23.3 °F 30.08 in Calm     78% 0.00 in 0 W/m2
19:28 29.2 °F 23.2 °F 30.08 in Calm     78% 0.00 in 0 W/m2
19:34 28.9 °F 23.2 °F 30.08 in Calm     79% 0.00 in 0 W/m2
19:40 28.6 °F 22.9 °F 30.08 in Calm     79% 0.00 in 0 W/m2
19:46 28.3 °F 22.9 °F 30.08 in Calm   1.0 mph 80% 0.00 in 0 W/m2
19:52 28.1 °F 23.0 °F 30.08 in Calm     81% 0.00 in 0 W/m2
19:58 27.9 °F 23.1 °F 30.08 in Calm     82% 0.00 in 0 W/m2
20:04 27.6 °F 22.8 °F 30.07 in Calm     82% 0.00 in 0 W/m2
20:10 27.3 °F 22.5 °F 30.07 in Calm     82% 0.00 in 0 W/m2
20:16 27.0 °F 22.2 °F 30.07 in Calm     82% 0.00 in 0 W/m2
20:22 26.6 °F 22.1 °F 30.06 in Calm     83% 0.00 in 0 W/m2
20:28 26.3 °F 21.8 °F 30.06 in Calm     83% 0.00 in 0 W/m2
20:34 26.0 °F 21.5 °F 30.06 in Calm     83% 0.00 in 0 W/m2
20:40 25.9 °F 21.7 °F 30.06 in Calm     84% 0.00 in 0 W/m2
20:46 25.8 °F 21.6 °F 30.06 in Calm     84% 0.00 in 0 W/m2
20:52 25.7 °F 21.5 °F 30.05 in Calm     84% 0.00 in 0 W/m2
20:58 25.5 °F 21.6 °F 30.04 in Calm     85% 0.00 in 0 W/m2
21:04 25.6 °F 21.7 °F 30.03 in Calm   2.0 mph 85% 0.00 in 0 W/m2
21:08 25.7 °F 22.1 °F 30.03 in Calm   2.0 mph 86% 0.00 in 0 W/m2
21:14 25.5 °F 21.9 °F 30.03 in Calm     86% 0.00 in 0 W/m2
21:20 25.4 °F 21.8 °F 30.03 in Calm     86% 0.00 in 0 W/m2
21:26 25.3 °F 21.7 °F 30.03 in Calm     86% 0.00 in 0 W/m2
21:32 25.2 °F 21.6 °F 30.04 in Calm     86% 0.00 in 0 W/m2
21:38 25.1 °F 21.5 °F 30.03 in Calm     86% 0.00 in 0 W/m2
21:44 24.9 °F 21.3 °F 30.03 in Calm     86% 0.00 in 0 W/m2
21:50 25.1 °F 21.8 °F 30.02 in Calm     87% 0.00 in 0 W/m2
21:56 25.0 °F 21.7 °F 30.02 in Calm     87% 0.00 in 0 W/m2
22:02 25.0 °F 21.7 °F 30.02 in Calm     87% 0.00 in 0 W/m2
22:08 24.9 °F 21.6 °F 30.02 in Calm     87% 0.00 in 0 W/m2
22:20 24.8 °F 21.8 °F 30.01 in Calm     88% 0.00 in 0 W/m2
22:24 24.9 °F 21.8 °F 30.01 in Calm     88% 0.00 in 0 W/m2
22:32 25.0 °F 21.9 °F 30.00 in Calm     88% 0.00 in 0 W/m2
22:38 25.3 °F 22.0 °F 30.00 in WNW 1.0 mph 2.0 mph 87% 0.00 in 0 W/m2
22:40 25.4 °F 22.1 °F 30.01 in WNW 1.0 mph 1.0 mph 87% 0.00 in 0 W/m2
22:44 25.5 °F 22.2 °F 30.01 in WNW 1.0 mph 1.0 mph 87% 0.00 in 0 W/m2
22:50 25.6 °F 22.0 °F 30.01 in Calm   1.0 mph 86% 0.00 in 0 W/m2
22:56 25.9 °F 22.3 °F 30.00 in Calm   1.0 mph 86% 0.00 in 0 W/m2
23:02 25.8 °F 21.9 °F 30.00 in Calm   1.0 mph 85% 0.00 in 0 W/m2
23:08 25.8 °F 21.9 °F 29.99 in Calm   1.0 mph 85% 0.00 in 0 W/m2
23:14 25.7 °F 21.8 °F 29.99 in Calm     85% 0.00 in 0 W/m2
23:20 25.6 °F 21.7 °F 29.99 in Calm     85% 0.00 in 0 W/m2
23:26 25.5 °F 21.9 °F 29.99 in Calm     86% 0.00 in 0 W/m2
23:32 25.5 °F 21.9 °F 29.98 in Calm   2.0 mph 86% 0.00 in 0 W/m2
23:38 25.6 °F 22.0 °F 29.98 in WNW 1.0 mph 2.0 mph 86% 0.00 in 0 W/m2
23:44 25.6 °F 21.7 °F 29.98 in Calm     85% 0.00 in 0 W/m2
23:50 25.6 °F 21.7 °F 29.98 in Calm     85% 0.00 in 0 W/m2
23:56 25.7 °F 21.8 °F 29.98 in Calm     85% 0.00 in 0 W/m2
Country Meadow, Clay, NY, USA
Compliments of Weather Underground - 2 mb